Time;durP1;ratioP1;P1;durP2;ratioP2;P2;SDS_P1;SDS_P2;PMS_P1;PMS_P2;Temp;Humidity;BMP_temperature;BMP_pressure;BME280_temperature;BME280_humidity;BME280_pressure;Samples;Min_cycle;Max_cycle;Signal;HPM_P1;HPM_P2
2021/10/27 00:00:19;;;;;;;24.80;4.20;;;21.90;65.20;;;;;;4965620;28;20486;-66
2021/10/27 00:03:25;;;;;;;14.68;3.28;;;21.90;65.20;;;;;;4965472;28;20038;-67
2021/10/27 00:06:32;;;;;;;13.32;3.95;;;21.80;65.30;;;;;;4967795;28;20314;-68
2021/10/27 00:09:38;;;;;;;14.73;3.78;;;21.90;65.40;;;;;;4966332;28;20023;-78
2021/10/27 00:12:44;;;;;;;13.10;3.70;;;21.80;65.40;;;;;;4964765;28;20638;-67
2021/10/27 00:15:51;;;;;;;10.02;2.80;;;21.90;65.40;;;;;;4968087;28;20034;-68
2021/10/27 00:18:57;;;;;;;11.57;3.70;;;21.80;65.60;;;;;;4965895;28;20043;-74
2021/10/27 00:22:03;;;;;;;12.88;3.97;;;21.70;65.70;;;;;;4966889;28;20039;-67
2021/10/27 00:24:29;;;;;;;14.52;3.33;;;21.70;66.10;;;;;;4968796;28;20058;-68
2021/10/27 00:26:56;;;;;;;16.27;3.50;;;21.70;66.40;;;;;;4965909;28;20031;-69
2021/10/27 00:29:22;;;;;;;12.25;3.35;;;21.70;66.50;;;;;;4967462;28;20135;-68
2021/10/27 00:31:49;;;;;;;15.07;4.63;;;21.70;66.70;;;;;;4963474;28;20121;-66
2021/10/27 00:34:15;;;;;;;10.80;3.60;;;21.60;66.90;;;;;;4968026;28;20049;-69
2021/10/27 00:36:41;;;;;;;11.77;3.22;;;21.60;67.00;;;;;;4964959;28;20503;-66
2021/10/27 00:39:08;;;;;;;15.55;4.88;;;21.60;67.10;;;;;;4964737;28;20022;-67
2021/10/27 00:41:34;;;;;;;12.80;4.05;;;21.60;67.20;;;;;;4969626;28;20105;-77
2021/10/27 00:44:01;;;;;;;14.80;4.50;;;21.60;67.30;;;;;;4968745;28;20471;-72
2021/10/27 00:46:27;;;;;;;13.90;4.38;;;21.50;67.40;;;;;;4965614;28;20019;-67
2021/10/27 00:48:54;;;;;;;13.77;4.20;;;21.50;67.50;;;;;;4965675;28;20073;-67
2021/10/27 00:51:22;;;;;;;13.15;3.45;;;21.50;67.60;;;;;;4965785;28;20023;-67
2021/10/27 00:53:49;;;;;;;11.90;3.60;;;21.40;68.30;;;;;;4964871;28;20023;-67
2021/10/27 00:56:18;;;;;;;12.05;3.30;;;21.40;67.80;;;;;;4969016;28;20464;-66
2021/10/27 00:58:44;;;;;;;14.90;3.67;;;21.40;68.00;;;;;;4965862;28;20502;-66
2021/10/27 01:01:11;;;;;;;16.23;2.95;;;21.30;67.90;;;;;;4966949;28;20027;-67
2021/10/27 01:03:37;;;;;;;11.18;2.90;;;21.30;68.00;;;;;;4966020;28;20015;-71
2021/10/27 01:06:05;;;;;;;11.65;3.20;;;21.30;68.00;;;;;;4963402;28;20026;-66
2021/10/27 01:08:33;;;;;;;13.50;3.53;;;21.30;68.10;;;;;;4966875;28;20019;-72
2021/10/27 01:11:00;;;;;;;19.75;3.60;;;21.30;68.10;;;;;;4967973;28;20030;-66
2021/10/27 01:13:27;;;;;;;13.15;3.38;;;21.30;68.10;;;;;;4957636;28;20038;-80
2021/10/27 01:15:53;;;;;;;13.85;3.22;;;21.30;68.10;;;;;;4969561;28;20015;-67
2021/10/27 01:18:20;;;;;;;13.40;2.97;;;21.30;68.10;;;;;;4965803;28;20019;-67
2021/10/27 01:20:46;;;;;;;11.25;4.28;;;21.20;67.90;;;;;;4965847;28;20011;-66
2021/10/27 01:23:13;;;;;;;11.70;3.20;;;21.20;67.90;;;;;;4963800;28;20023;-67
2021/10/27 01:25:39;;;;;;;12.32;3.78;;;21.20;68.00;;;;;;4965259;28;20058;-81
2021/10/27 01:28:06;;;;;;;9.88;3.20;;;21.20;68.20;;;;;;4964892;28;20524;-75
2021/10/27 01:30:32;;;;;;;11.18;4.80;;;21.20;68.20;;;;;;4963672;28;20131;-82
2021/10/27 01:32:59;;;;;;;15.35;3.35;;;21.20;68.20;;;;;;4963529;28;20023;-66
2021/10/27 01:35:25;;;;;;;13.60;4.80;;;21.20;68.40;;;;;;4965631;28;20054;-66
2021/10/27 01:37:52;;;;;;;11.98;2.85;;;21.20;68.40;;;;;;4963930;28;20054;-70
2021/10/27 01:40:19;;;;;;;8.57;2.78;;;21.10;68.30;;;;;;4967234;28;20034;-77
2021/10/27 01:42:52;;;;;;;14.07;3.58;;;21.10;68.40;;;;;;4967393;28;20118;-67
2021/10/27 01:45:19;;;;;;;13.27;3.97;;;21.10;68.40;;;;;;4962826;28;20031;-66
2021/10/27 01:47:46;;;;;;;10.00;3.50;;;21.10;68.50;;;;;;4966552;28;20019;-69
2021/10/27 01:50:13;;;;;;;9.23;2.85;;;21.10;68.50;;;;;;4967352;28;20593;-67
2021/10/27 01:52:40;;;;;;;14.80;3.95;;;21.10;68.60;;;;;;4966897;28;20015;-74
2021/10/27 01:55:07;;;;;;;11.05;4.13;;;21.10;68.60;;;;;;4964176;28;20095;-66
2021/10/27 01:57:33;;;;;;;13.15;4.25;;;21.00;68.60;;;;;;4966762;28;20031;-66
2021/10/27 02:00:00;;;;;;;11.48;3.85;;;21.10;68.70;;;;;;4963077;28;20065;-67
2021/10/27 02:02:26;;;;;;;13.50;3.83;;;21.10;68.70;;;;;;4967227;28;20027;-66
2021/10/27 02:04:53;;;;;;;12.13;4.82;;;21.10;68.70;;;;;;4966504;28;20024;-66
2021/10/27 02:07:19;;;;;;;14.45;3.55;;;21.00;68.70;;;;;;4964994;28;20019;-66
2021/10/27 02:09:46;;;;;;;11.40;3.72;;;21.00;68.80;;;;;;4965813;28;20474;-67
2021/10/27 02:12:13;;;;;;;11.27;3.45;;;21.00;68.80;;;;;;4965213;28;20496;-66
2021/10/27 02:14:40;;;;;;;15.88;3.45;;;21.00;68.90;;;;;;4967185;28;20027;-66
2021/10/27 02:17:07;;;;;;;15.40;3.70;;;20.90;69.00;;;;;;4962157;28;20022;-66
2021/10/27 02:19:33;;;;;;;15.45;3.90;;;20.90;69.00;;;;;;4967597;28;20078;-67
2021/10/27 02:22:00;;;;;;;14.82;3.70;;;20.90;68.80;;;;;;4962647;28;20032;-66
2021/10/27 02:24:26;;;;;;;9.75;3.47;;;20.90;68.70;;;;;;4970326;28;20461;-71
2021/10/27 02:26:52;;;;;;;16.17;4.10;;;20.90;68.60;;;;;;4961245;28;20461;-66
2021/10/27 02:29:19;;;;;;;11.95;4.30;;;20.90;68.60;;;;;;4962606;28;20476;-66
2021/10/27 02:31:45;;;;;;;11.55;3.50;;;20.90;68.50;;;;;;4960335;28;20410;-66
2021/10/27 02:34:12;;;;;;;9.25;2.90;;;20.90;68.40;;;;;;4962638;28;20514;-80
2021/10/27 02:36:38;;;;;;;10.20;3.15;;;20.90;68.40;;;;;;4967374;28;20050;-66
2021/10/27 02:39:06;;;;;;;10.40;2.63;;;20.90;68.50;;;;;;4966493;28;20433;-66
2021/10/27 02:41:33;;;;;;;8.52;2.55;;;20.90;68.40;;;;;;4962967;28;20066;-82
2021/10/27 02:44:00;;;;;;;11.50;3.22;;;20.90;68.70;;;;;;4964545;28;20019;-66
2021/10/27 02:46:26;;;;;;;6.03;2.53;;;20.90;68.80;;;;;;4961578;28;20049;-68
2021/10/27 02:48:53;;;;;;;7.72;3.08;;;20.90;69.00;;;;;;4958079;28;20326;-66
2021/10/27 02:51:19;;;;;;;9.85;3.05;;;20.90;69.20;;;;;;4965383;28;20529;-68
2021/10/27 02:53:46;;;;;;;8.25;2.83;;;20.90;69.40;;;;;;4962490;28;20038;-66
2021/10/27 02:56:12;;;;;;;13.35;2.60;;;20.90;69.70;;;;;;4966764;28;20404;-71
2021/10/27 02:58:39;;;;;;;12.05;3.45;;;20.90;70.10;;;;;;4968105;28;20021;-73
2021/10/27 03:01:06;;;;;;;10.10;3.75;;;20.90;70.20;;;;;;4967185;28;20023;-66
2021/10/27 03:03:32;;;;;;;12.23;4.35;;;20.80;70.30;;;;;;4967847;28;20033;-66
2021/10/27 03:05:59;;;;;;;14.23;3.65;;;20.80;70.50;;;;;;4965594;28;20027;-73
2021/10/27 03:08:26;;;;;;;7.47;4.18;;;20.80;70.50;;;;;;4972535;28;20042;-79
2021/10/27 03:10:52;;;;;;;10.73;3.72;;;20.80;70.60;;;;;;4970663;28;20065;-83
2021/10/27 03:13:19;;;;;;;14.27;4.03;;;20.80;70.80;;;;;;4966889;28;20782;-65
2021/10/27 03:15:45;;;;;;;14.75;3.95;;;20.80;70.90;;;;;;4968097;28;20007;-72
2021/10/27 03:18:12;;;;;;;11.13;3.50;;;20.80;71.00;;;;;;4966773;28;20078;-79
2021/10/27 03:20:38;;;;;;;10.88;3.75;;;20.80;71.00;;;;;;4968223;28;20037;-65
2021/10/27 03:23:44;;;;;;;13.10;3.83;;;20.70;71.10;;;;;;4966353;28;20019;-67
2021/10/27 03:26:50;;;;;;;21.23;14.07;;;20.70;71.30;;;;;;4965820;28;20020;-69
2021/10/27 03:29:25;;;;;;;29.63;13.63;;;20.70;71.40;;;;;;4967981;28;20027;-78
2021/10/27 03:31:52;;;;;;;14.80;5.40;;;20.70;71.50;;;;;;4984690;28;20046;-65
2021/10/27 03:34:18;;;;;;;11.50;3.55;;;20.60;71.60;;;;;;4965777;28;20480;-71
2021/10/27 03:36:45;;;;;;;14.77;4.38;;;20.60;71.90;;;;;;4969129;28;20059;-68
2021/10/27 03:39:12;;;;;;;11.02;5.18;;;20.60;72.00;;;;;;4965656;28;20066;-65
2021/10/27 03:41:39;;;;;;;8.55;3.13;;;20.60;72.20;;;;;;4966043;28;20042;-66
2021/10/27 03:44:06;;;;;;;13.35;4.60;;;20.50;72.30;;;;;;4966107;28;20062;-65
2021/10/27 03:46:32;;;;;;;13.80;3.65;;;20.60;72.40;;;;;;4969360;28;20141;-66
2021/10/27 03:48:59;;;;;;;9.82;2.95;;;20.50;72.40;;;;;;4965371;28;20083;-65
2021/10/27 03:51:26;;;;;;;12.98;3.22;;;20.50;72.60;;;;;;4968895;28;20023;-65
2021/10/27 03:53:53;;;;;;;15.32;3.92;;;20.50;72.60;;;;;;4961642;28;20023;-81
2021/10/27 03:56:19;;;;;;;15.68;4.43;;;20.50;72.70;;;;;;4969662;28;20387;-67
2021/10/27 03:58:46;;;;;;;13.35;3.92;;;20.50;72.90;;;;;;4967946;28;20015;-70
2021/10/27 04:01:13;;;;;;;14.32;8.88;;;20.50;73.00;;;;;;4969629;28;20061;-66
2021/10/27 04:03:40;;;;;;;32.13;15.32;;;20.50;73.10;;;;;;4966764;28;20031;-67
2021/10/27 04:06:06;;;;;;;13.35;6.55;;;20.40;73.30;;;;;;4967002;28;20485;-67
2021/10/27 04:08:33;;;;;;;7.55;3.20;;;20.40;73.40;;;;;;4969966;28;20081;-69
2021/10/27 04:11:39;;;;;;;14.32;3.28;;;20.50;73.40;;;;;;4969458;28;20008;-77
2021/10/27 04:14:06;;;;;;;13.68;4.65;;;20.40;73.40;;;;;;4969333;28;20031;-66
2021/10/27 04:16:33;;;;;;;9.93;3.75;;;20.40;73.50;;;;;;4967713;28;20125;-69
2021/10/27 04:18:59;;;;;;;9.30;2.97;;;20.40;73.50;;;;;;4968110;28;20035;-70
2021/10/27 04:21:26;;;;;;;13.40;3.25;;;20.40;73.80;;;;;;4965270;28;20477;-66
2021/10/27 04:23:52;;;;;;;11.00;4.03;;;20.40;73.90;;;;;;4967247;28;20097;-67
2021/10/27 04:26:19;;;;;;;19.92;13.40;;;20.40;73.90;;;;;;4969604;28;20549;-67
2021/10/27 04:28:45;;;;;;;24.15;12.25;;;20.40;74.00;;;;;;4968815;28;20019;-66
2021/10/27 04:31:13;;;;;;;13.80;4.50;;;20.40;74.00;;;;;;4966264;28;20027;-67
2021/10/27 04:33:39;;;;;;;14.38;3.90;;;20.40;74.00;;;;;;4967143;28;20047;-66
2021/10/27 04:36:06;;;;;;;17.30;3.95;;;20.40;74.00;;;;;;4963812;28;20701;-68
2021/10/27 04:38:32;;;;;;;8.88;3.40;;;20.40;74.10;;;;;;4967857;28;20027;-67
2021/10/27 04:40:59;;;;;;;15.98;3.85;;;20.50;74.20;;;;;;4967588;28;20018;-67
2021/10/27 04:43:25;;;;;;;13.32;3.47;;;20.50;74.20;;;;;;4961726;28;20363;-71
2021/10/27 04:45:52;;;;;;;9.80;3.75;;;20.40;74.20;;;;;;4964831;28;20023;-67
2021/10/27 04:48:19;;;;;;;11.70;3.60;;;20.50;74.40;;;;;;4965811;28;20016;-67
2021/10/27 04:50:46;;;;;;;9.20;3.15;;;20.50;74.20;;;;;;4967219;28;20103;-67
2021/10/27 04:53:18;;;;;;;11.25;3.53;;;20.50;74.00;;;;;;4980637;28;20375;-75
2021/10/27 04:55:45;;;;;;;12.18;3.80;;;20.50;74.20;;;;;;4966967;28;20113;-70
2021/10/27 04:58:13;;;;;;;12.52;3.17;;;20.60;74.20;;;;;;4965724;28;20899;-73
2021/10/27 05:00:39;;;;;;;10.52;3.53;;;20.50;74.20;;;;;;4966609;28;20038;-67
2021/10/27 05:03:06;;;;;;;11.93;3.15;;;20.60;74.40;;;;;;4965366;28;20478;-70
2021/10/27 05:05:41;;;;;;;10.02;3.90;;;20.60;74.50;;;;;;4968808;28;20113;-73
2021/10/27 05:08:08;;;;;;;13.02;3.75;;;20.60;74.60;;;;;;4966834;28;20027;-67
2021/10/27 05:10:35;;;;;;;9.85;3.60;;;20.60;74.60;;;;;;4966853;28;20019;-67
2021/10/27 05:13:01;;;;;;;15.65;4.28;;;20.70;74.60;;;;;;4967831;28;20034;-73
2021/10/27 05:15:28;;;;;;;15.23;3.60;;;20.70;74.60;;;;;;4965025;28;20102;-73
2021/10/27 05:17:54;;;;;;;17.45;3.80;;;20.70;74.40;;;;;;4967972;28;20027;-72
2021/10/27 05:20:21;;;;;;;12.30;4.95;;;20.80;74.30;;;;;;4965428;28;20023;-71
2021/10/27 05:22:47;;;;;;;8.68;3.55;;;20.90;74.30;;;;;;4966779;28;20100;-73
2021/10/27 05:25:14;;;;;;;10.60;4.35;;;20.90;74.30;;;;;;4966122;28;20134;-72
2021/10/27 05:27:40;;;;;;;10.55;3.42;;;20.90;74.30;;;;;;4966095;28;20023;-69
2021/10/27 05:30:07;;;;;;;12.88;3.53;;;21.00;74.30;;;;;;4965116;28;20058;-71
2021/10/27 05:32:34;;;;;;;14.98;3.97;;;21.00;74.00;;;;;;4966246;28;20027;-70
2021/10/27 05:35:00;;;;;;;10.80;3.83;;;21.00;73.90;;;;;;4962636;28;20093;-73
2021/10/27 05:37:27;;;;;;;11.77;3.25;;;21.00;73.90;;;;;;4966349;28;20035;-67
2021/10/27 05:39:53;;;;;;;11.05;3.75;;;21.10;73.80;;;;;;4967213;28;20042;-71
2021/10/27 05:42:21;;;;;;;18.52;3.88;;;21.10;73.60;;;;;;4967009;28;20073;-70
2021/10/27 05:44:50;;;;;;;15.07;4.75;;;21.20;73.50;;;;;;4963206;28;20505;-70
2021/10/27 05:47:17;;;;;;;16.55;4.35;;;21.20;73.50;;;;;;4965803;28;20100;-68
2021/10/27 05:55:46;;;;;;;10.85;4.47;;;21.30;73.10;;;;;;4967382;28;20058;-72
2021/10/27 05:58:13;;;;;;;10.27;4.68;;;21.40;73.20;;;;;;4966393;28;20086;-71
2021/10/27 06:00:42;;;;;;;17.05;4.78;;;21.40;73.30;;;;;;4968871;28;20018;-67
2021/10/27 06:03:08;;;;;;;13.48;4.07;;;21.50;73.10;;;;;;4961954;28;20022;-72
2021/10/27 06:05:36;;;;;;;10.45;4.70;;;21.50;72.90;;;;;;4968186;28;20019;-70
2021/10/27 06:08:03;;;;;;;16.30;4.00;;;21.60;72.50;;;;;;4959321;28;20015;-72
2021/10/27 06:10:30;;;;;;;17.33;5.05;;;21.70;72.50;;;;;;4965908;28;20460;-68
2021/10/27 06:13:04;;;;;;;17.92;5.05;;;21.70;72.40;;;;;;4960196;28;20023;-75
2021/10/27 06:15:31;;;;;;;12.48;5.22;;;21.80;72.20;;;;;;4961557;28;20011;-67
2021/10/27 06:17:59;;;;;;;13.45;4.53;;;21.90;72.00;;;;;;4962740;28;20038;-72
2021/10/27 06:20:26;;;;;;;15.90;5.22;;;22.00;71.40;;;;;;4964538;28;20050;-67
2021/10/27 06:22:52;;;;;;;15.48;6.07;;;22.10;70.80;;;;;;4962091;28;20455;-67
2021/10/27 06:25:19;;;;;;;13.93;5.43;;;22.20;70.50;;;;;;4961044;28;20027;-72
2021/10/27 06:27:49;;;;;;;11.43;4.65;;;22.20;70.00;;;;;;4962213;28;20023;-67
2021/10/27 06:30:26;;;;;;;14.63;3.65;;;22.30;69.50;;;;;;4959813;28;20100;-71
2021/10/27 06:35:41;;;;;;;10.43;4.57;;;22.50;68.60;;;;;;4968170;28;20105;-66
2021/10/27 06:48:49;;;;;;;12.80;4.30;;;23.00;66.50;;;;;;4965306;28;20126;-66
2021/10/27 06:51:16;;;;;;;7.70;2.83;;;23.10;65.80;;;;;;4968700;28;20043;-71
2021/10/27 06:53:43;;;;;;;16.15;3.30;;;23.20;65.00;;;;;;4969698;28;20034;-66
2021/10/27 06:56:13;;;;;;;9.40;3.00;;;23.40;64.30;;;;;;4969911;28;20022;-70
2021/10/27 06:59:06;;;;;;;13.50;4.10;;;23.40;63.80;;;;;;4970878;28;20127;-67
2021/10/27 07:14:59;;;;;;;8.32;2.85;;;23.80;61.30;;;;;;4965146;28;20085;-67
2021/10/27 07:15:17;;;;;;;14.10;4.90;;;23.80;60.80;;;;;;4968843;28;20090;-67
2021/10/27 07:17:53;;;;;;;9.85;3.45;;;23.90;60.80;;;;;;4963133;28;20474;-66
2021/10/27 07:20:21;;;;;;;10.20;3.72;;;24.00;60.30;;;;;;4963521;28;20042;-69
2021/10/27 07:22:47;;;;;;;11.55;3.10;;;24.10;60.30;;;;;;4969992;28;20086;-68
2021/10/27 07:25:15;;;;;;;6.68;3.03;;;24.20;60.40;;;;;;4965033;28;20102;-67
2021/10/27 07:27:46;;;;;;;9.15;2.60;;;24.30;59.70;;;;;;4970458;28;20082;-67
2021/10/27 07:30:13;;;;;;;8.43;3.17;;;24.40;58.90;;;;;;4966509;28;20026;-67
2021/10/27 07:32:40;;;;;;;11.25;3.47;;;24.50;58.80;;;;;;4969737;28;20023;-71
2021/10/27 07:40:33;;;;;;;8.30;3.03;;;24.90;57.20;;;;;;4965795;28;20065;-66
2021/10/27 07:43:15;;;;;;;7.20;3.03;;;25.00;56.70;;;;;;4966358;28;20027;-66
2021/10/27 07:45:42;;;;;;;6.57;2.38;;;25.10;56.20;;;;;;4970110;28;20032;-67
2021/10/27 07:48:09;;;;;;;9.20;4.07;;;25.30;55.80;;;;;;4961810;28;20037;-70
2021/10/27 07:50:37;;;;;;;8.90;3.53;;;25.30;55.40;;;;;;4968415;28;20066;-66
2021/10/27 07:53:07;;;;;;;10.68;4.88;;;25.40;55.80;;;;;;4967011;28;20031;-73
2021/10/27 07:55:35;;;;;;;9.45;3.50;;;25.50;56.10;;;;;;4966990;28;20028;-66
2021/10/27 07:58:02;;;;;;;11.25;4.60;;;25.60;56.90;;;;;;4966084;28;20050;-67
2021/10/27 08:00:31;;;;;;;8.82;3.58;;;25.70;55.40;;;;;;4967775;28;20054;-66
2021/10/27 08:03:03;;;;;;;12.15;3.92;;;25.80;55.10;;;;;;4963336;28;20496;-67
2021/10/27 08:05:41;;;;;;;9.98;3.45;;;25.90;55.00;;;;;;4968587;28;20492;-73
2021/10/27 08:08:11;;;;;;;13.48;5.28;;;25.90;55.00;;;;;;4971040;28;20168;-67
2021/10/27 08:10:39;;;;;;;12.82;4.15;;;26.00;55.50;;;;;;4965733;28;20015;-67
2021/10/27 08:13:06;;;;;;;11.85;4.57;;;26.00;55.80;;;;;;4968337;28;20031;-67
2021/10/27 08:15:33;;;;;;;7.78;3.55;;;26.10;55.40;;;;;;4968151;28;20405;-67
2021/10/27 08:18:02;;;;;;;11.43;4.03;;;26.20;55.40;;;;;;4969411;28;20058;-67
2021/10/27 08:20:29;;;;;;;12.73;4.57;;;26.30;54.90;;;;;;4960320;28;20016;-68
2021/10/27 08:23:02;;;;;;;6.00;3.47;;;26.40;54.60;;;;;;4969181;28;20054;-66
2021/10/27 08:25:30;;;;;;;15.25;5.07;;;26.60;54.20;;;;;;4963714;28;20027;-67
2021/10/27 08:28:33;;;;;;;11.88;3.78;;;26.70;53.90;;;;;;4968748;28;20073;-66
2021/10/27 08:33:51;;;;;;;13.00;5.03;;;26.90;52.40;;;;;;4961498;28;20114;-72
2021/10/27 08:36:18;;;;;;;10.70;3.58;;;27.00;52.40;;;;;;4971030;28;20027;-67
2021/10/27 08:38:45;;;;;;;11.40;4.00;;;27.10;52.50;;;;;;4960875;28;20102;-66
2021/10/27 08:41:14;;;;;;;11.43;3.20;;;27.20;52.00;;;;;;4969173;28;20023;-67
2021/10/27 08:43:41;;;;;;;7.70;3.47;;;27.40;51.80;;;;;;4961465;28;20027;-68
2021/10/27 08:46:08;;;;;;;13.02;3.13;;;27.50;51.50;;;;;;4969433;28;20034;-71
2021/10/27 08:48:37;;;;;;;6.65;3.08;;;27.60;51.20;;;;;;4962652;28;20039;-71
2021/10/27 08:51:08;;;;;;;11.73;3.33;;;27.70;50.90;;;;;;4967169;28;20133;-66
2021/10/27 08:53:36;;;;;;;7.78;3.08;;;27.80;50.60;;;;;;4965504;28;20037;-67
2021/10/27 08:56:05;;;;;;;6.53;3.03;;;27.90;50.20;;;;;;4964100;28;20084;-68
2021/10/27 08:58:41;;;;;;;5.80;2.97;;;28.00;50.00;;;;;;4963574;28;20027;-67
2021/10/27 09:04:02;;;;;;;7.25;2.67;;;28.30;49.40;;;;;;4967849;28;20015;-72
2021/10/27 09:06:35;;;;;;;6.60;2.88;;;28.40;48.50;;;;;;4964270;28;20028;-68
2021/10/27 09:15:05;;;;;;;11.05;3.03;;;28.80;47.70;;;;;;4968198;28;20394;-67
2021/10/27 09:33:36;;;;;;;6.43;3.03;;;29.00;46.90;;;;;;4969159;28;20042;-67
2021/10/27 10:05:04;;;;;;;6.03;2.20;;;27.00;55.40;;;;;;4963143;28;20077;-71
2021/10/27 10:07:31;;;;;;;11.73;3.10;;;26.90;55.20;;;;;;4964210;28;20385;-67
2021/10/27 10:09:57;;;;;;;11.50;3.58;;;26.80;55.60;;;;;;4962746;28;20109;-66
2021/10/27 10:12:24;;;;;;;9.77;3.88;;;26.70;56.00;;;;;;4965657;28;20034;-66
2021/10/27 10:14:52;;;;;;;8.38;3.13;;;26.70;56.10;;;;;;4966242;28;20019;-71
2021/10/27 10:17:18;;;;;;;6.25;2.67;;;26.70;55.90;;;;;;4968334;28;20576;-69
2021/10/27 10:19:45;;;;;;;10.70;3.13;;;26.70;55.90;;;;;;4965609;28;20050;-69
2021/10/27 10:22:35;;;;;;;9.00;2.92;;;26.80;56.10;;;;;;4966571;28;20018;-67
2021/10/27 10:25:21;;;;;;;6.45;2.85;;;26.90;55.60;;;;;;4961228;28;20035;-71
2021/10/27 10:27:49;;;;;;;12.75;3.22;;;26.90;55.30;;;;;;4963944;28;20482;-71
2021/10/27 10:30:38;;;;;;;10.52;2.83;;;26.90;55.20;;;;;;4968086;28;20030;-68
2021/10/27 10:33:06;;;;;;;16.20;4.18;;;26.90;55.30;;;;;;4964333;28;20371;-70
2021/10/27 10:41:57;;;;;;;8.45;3.75;;;26.90;54.70;;;;;;4965010;28;20039;-66
2021/10/27 10:45:31;;;;;;;19.38;3.40;;;27.00;54.30;;;;;;4965037;28;20101;-66
2021/10/27 11:24:02;;;;;;;15.23;3.90;;;27.20;52.40;;;;;;4963816;28;20548;-69
2021/10/27 11:37:39;;;;;;;14.38;3.53;;;27.40;51.70;;;;;;4970284;28;20113;-70
2021/10/27 11:40:20;;;;;;;7.35;2.58;;;27.50;51.50;;;;;;4969259;28;20027;-69
2021/10/27 11:48:02;;;;;;;19.33;4.53;;;27.90;50.90;;;;;;4967011;28;20031;-71
2021/10/27 11:50:38;;;;;;;7.38;2.53;;;27.80;50.20;;;;;;4971142;28;20027;-66
2021/10/27 11:53:16;;;;;;;16.88;3.75;;;27.90;50.60;;;;;;4964888;28;20030;-71
2021/10/27 11:55:43;;;;;;;8.82;2.90;;;27.90;49.60;;;;;;4965710;28;20024;-72
2021/10/27 11:58:09;;;;;;;11.57;3.40;;;27.90;49.90;;;;;;4969511;28;20034;-72
2021/10/27 12:00:39;;;;;;;9.35;3.63;;;28.00;49.80;;;;;;4965353;28;20024;-72
2021/10/27 12:03:12;;;;;;;7.72;2.33;;;28.10;49.90;;;;;;4969321;28;20118;-71
2021/10/27 12:05:56;;;;;;;8.18;2.70;;;28.20;49.70;;;;;;4964096;28;20030;-73
2021/10/27 12:08:40;;;;;;;7.25;2.90;;;28.30;49.30;;;;;;4970798;28;20109;-70
2021/10/27 12:11:19;;;;;;;11.32;3.13;;;28.40;49.20;;;;;;4966648;28;20099;-71
2021/10/27 12:13:55;;;;;;;9.32;3.15;;;28.50;49.00;;;;;;4966906;28;20030;-67
2021/10/27 15:20:06;;;;;;;17.47;5.77;;;23.30;69.90;;;;;;6243139;23;20011;-73
2021/10/27 15:32:44;;;;;;;23.35;7.05;;;23.30;70.20;;;;;;6239437;22;20067;-78
2021/10/27 15:52:21;;;;;;;24.08;6.63;;;23.20;71.50;;;;;;6237036;23;20431;-75
2021/10/27 15:54:37;;;;;;;27.35;10.40;;;23.20;71.40;;;;;;6230328;23;20000;-73
2021/10/27 15:57:04;;;;;;;14.75;6.57;;;23.20;71.30;;;;;;6236099;23;20608;-72
2021/10/27 15:59:31;;;;;;;27.17;8.38;;;23.10;70.70;;;;;;6236194;23;20000;-73
2021/10/27 16:01:57;;;;;;;22.63;5.55;;;23.10;70.70;;;;;;6237643;23;20907;-78
2021/10/27 16:04:24;;;;;;;19.92;5.80;;;23.10;70.90;;;;;;6235656;23;20374;-77
2021/10/27 16:06:55;;;;;;;21.40;7.55;;;23.10;70.50;;;;;;6235539;23;20096;-71
2021/10/27 16:09:27;;;;;;;14.10;6.15;;;23.00;70.60;;;;;;6236777;23;20045;-75
2021/10/27 16:11:53;;;;;;;18.65;6.72;;;23.00;71.20;;;;;;6236223;23;19996;-73
2021/10/27 16:14:22;;;;;;;21.08;7.65;;;23.00;71.30;;;;;;6235614;23;20018;-75
2021/10/27 16:16:50;;;;;;;38.45;18.95;;;23.00;71.30;;;;;;6234495;23;20434;-70
2021/10/27 16:19:16;;;;;;;17.83;6.13;;;23.00;71.70;;;;;;6236718;23;20351;-74
2021/10/27 16:21:43;;;;;;;18.30;5.40;;;23.00;71.50;;;;;;6236186;23;20012;-74
2021/10/27 16:24:10;;;;;;;17.65;6.18;;;23.00;71.70;;;;;;6236674;23;20427;-74
2021/10/27 16:26:37;;;;;;;23.25;6.65;;;22.90;71.70;;;;;;6235497;23;20008;-80
2021/10/27 16:29:03;;;;;;;24.35;8.63;;;23.00;71.90;;;;;;6236654;23;20038;-74
2021/10/27 16:31:31;;;;;;;20.05;6.70;;;23.00;72.10;;;;;;6236891;23;20717;-71
2021/10/27 16:33:58;;;;;;;32.03;8.68;;;22.90;72.30;;;;;;6234590;23;20003;-71
2021/10/27 16:36:25;;;;;;;20.92;7.13;;;23.00;72.40;;;;;;6234779;23;20023;-80
2021/10/27 16:38:52;;;;;;;26.63;7.78;;;23.00;72.50;;;;;;6235872;23;20046;-73
2021/10/27 16:41:19;;;;;;;21.13;9.88;;;23.00;72.00;;;;;;6236389;23;20025;-76
2021/10/27 16:43:46;;;;;;;17.08;7.57;;;23.10;72.00;;;;;;6236076;23;20403;-76
2021/10/27 16:46:12;;;;;;;23.65;8.48;;;23.20;72.10;;;;;;6233880;23;20004;-76
2021/10/27 16:48:39;;;;;;;36.60;22.30;;;23.20;72.00;;;;;;6237316;23;20062;-78
2021/10/27 16:51:06;;;;;;;35.17;19.15;;;23.20;72.00;;;;;;6235992;23;20008;-78
2021/10/27 16:53:33;;;;;;;18.45;7.13;;;23.30;71.70;;;;;;6236189;23;20011;-80
2021/10/27 16:55:59;;;;;;;23.98;8.05;;;23.30;71.50;;;;;;6232648;23;20058;-72
2021/10/27 16:58:28;;;;;;;21.73;7.85;;;23.30;71.70;;;;;;6235544;23;20027;-71
2021/10/27 17:00:55;;;;;;;17.90;6.97;;;23.20;71.50;;;;;;6236874;23;20031;-80
2021/10/27 17:03:22;;;;;;;25.23;7.97;;;23.20;71.60;;;;;;6235931;23;20001;-75
2021/10/27 17:05:48;;;;;;;18.50;6.93;;;23.10;71.60;;;;;;6235165;23;20004;-73
2021/10/27 17:08:20;;;;;;;16.33;6.20;;;23.10;71.90;;;;;;6235402;23;20000;-75
2021/10/27 17:10:49;;;;;;;23.98;7.15;;;23.10;72.20;;;;;;6236999;23;20451;-72
2021/10/27 17:13:17;;;;;;;14.77;8.90;;;23.10;72.30;;;;;;6233929;23;20628;-74
2021/10/27 17:15:44;;;;;;;19.58;8.27;;;23.00;72.40;;;;;;6235684;23;20007;-74
2021/10/27 17:18:12;;;;;;;28.02;12.60;;;23.10;72.70;;;;;;6235297;23;19996;-78
2021/10/27 17:20:39;;;;;;;37.80;25.88;;;23.10;72.60;;;;;;6235949;23;20035;-76
2021/10/27 17:23:07;;;;;;;27.13;15.73;;;23.10;72.50;;;;;;6236526;23;20510;-74
2021/10/27 17:25:35;;;;;;;20.13;7.75;;;23.10;72.50;;;;;;6238878;23;20076;-68
2021/10/27 17:28:03;;;;;;;19.48;7.88;;;23.20;72.40;;;;;;6242719;23;20019;-71
2021/10/27 17:30:31;;;;;;;25.13;7.53;;;23.10;72.40;;;;;;6238901;23;20004;-74
2021/10/27 17:32:59;;;;;;;17.55;6.53;;;23.10;72.00;;;;;;6242134;23;20004;-74
2021/10/27 17:35:25;;;;;;;29.88;8.07;;;23.10;71.70;;;;;;6240673;23;20006;-78
2021/10/27 17:37:52;;;;;;;14.73;5.82;;;23.10;71.40;;;;;;6241026;23;20018;-70
2021/10/27 17:43:21;;;;;;;16.20;5.95;;;23.00;71.20;;;;;;6214514;23;20347;-72
2021/10/27 17:45:48;;;;;;;15.25;4.30;;;23.10;70.50;;;;;;6241232;23;20000;-66
2021/10/27 17:48:23;;;;;;;13.65;4.68;;;23.10;70.00;;;;;;6240704;23;20000;-74
2021/10/27 17:50:55;;;;;;;12.50;4.20;;;23.10;69.70;;;;;;6240303;23;20031;-71
2021/10/27 17:59:15;;;;;;;18.77;7.95;;;23.10;70.50;;;;;;6240364;23;20671;-74
2021/10/27 18:02:23;;;;;;;14.80;5.35;;;23.10;70.00;;;;;;6238931;23;20082;-71
2021/10/27 18:05:29;;;;;;;12.15;3.83;;;23.10;70.40;;;;;;6238096;23;20616;-74
2021/10/27 18:08:37;;;;;;;13.52;5.28;;;23.10;70.80;;;;;;6238922;23;20007;-72
2021/10/27 18:11:52;;;;;;;13.70;4.30;;;23.10;70.80;;;;;;6237781;23;20747;-68
2021/10/27 18:14:21;;;;;;;10.88;4.90;;;23.10;70.80;;;;;;6236788;23;20004;-68
2021/10/27 18:16:57;;;;;;;10.95;4.28;;;23.10;70.90;;;;;;6237930;23;20007;-73
2021/10/27 18:19:30;;;;;;;10.95;4.80;;;23.00;71.00;;;;;;6237470;23;20726;-71
2021/10/27 18:22:01;;;;;;;14.70;3.92;;;23.00;70.90;;;;;;6236760;23;20047;-74
2021/10/27 18:38:01;;;;;;;14.77;5.65;;;22.90;70.90;;;;;;6238238;23;20035;-75
2021/10/27 18:40:50;;;;;;;15.52;4.85;;;22.90;71.00;;;;;;6236508;23;20012;-74
2021/10/27 18:43:23;;;;;;;15.45;4.25;;;22.90;71.00;;;;;;6236713;23;20005;-70
2021/10/27 18:45:52;;;;;;;17.08;5.60;;;22.80;71.20;;;;;;6237639;23;20557;-69
2021/10/27 18:48:20;;;;;;;13.07;5.10;;;22.80;71.40;;;;;;6235946;23;20327;-70
2021/10/27 18:50:55;;;;;;;23.48;11.52;;;22.80;71.50;;;;;;6237262;23;19996;-77
2021/10/27 19:11:26;;;;;;;17.42;6.35;;;22.70;71.80;;;;;;6239807;23;20031;-75
2021/10/27 19:16:38;;;;;;;16.52;6.50;;;22.60;71.90;;;;;;6238896;23;20059;-71
2021/10/27 19:19:05;;;;;;;24.88;7.30;;;22.60;71.90;;;;;;6238703;23;20075;-68
2021/10/27 19:21:32;;;;;;;21.02;6.18;;;22.50;71.90;;;;;;6240526;23;20012;-77
2021/10/27 19:24:03;;;;;;;11.30;4.90;;;22.50;71.80;;;;;;6240087;23;20024;-74
2021/10/27 19:26:57;;;;;;;22.45;14.13;;;22.40;72.10;;;;;;6239710;23;20000;-75
2021/10/27 19:29:27;;;;;;;18.15;10.23;;;22.30;72.50;;;;;;6239219;23;20370;-78
2021/10/27 20:07:33;;;;;;;16.33;4.13;;;21.60;76.80;;;;;;6239032;23;20008;-74
2021/10/27 22:43:41;;;;;;;14.27;4.50;;;20.70;81.90;;;;;;6147495;22;2659761;-70
2021/10/27 22:46:11;;;;;;;19.30;5.50;;;20.70;82.00;;;;;;6190251;23;20063;-67
2021/10/27 22:48:38;;;;;;;15.65;5.60;;;20.70;82.30;;;;;;6189399;23;20001;-68